sensor_id;sensor_type;location;lat;lon;timestamp;pressure;altitude;pressure_sealevel;temperature;humidity
52983;BME280;48698;45.736;13.926;2023-08-08T00:01:31;97596.53;;;14.31;100.00
52983;BME280;48698;45.736;13.926;2023-08-08T00:06:34;97511.50;;;13.59;100.00
52983;BME280;48698;45.736;13.926;2023-08-08T00:11:39;97518.31;;;13.22;100.00
52983;BME280;48698;45.736;13.926;2023-08-08T00:16:43;97681.69;;;14.49;100.00
52983;BME280;48698;45.736;13.926;2023-08-08T00:21:46;97759.00;;;14.53;100.00
52983;BME280;48698;45.736;13.926;2023-08-08T00:26:50;97701.06;;;14.53;100.00
52983;BME280;48698;45.736;13.926;2023-08-08T00:31:53;97489.34;;;13.30;100.00
52983;BME280;48698;45.736;13.926;2023-08-08T00:36:56;97703.19;;;14.75;100.00
52983;BME280;48698;45.736;13.926;2023-08-08T00:42:00;97666.94;;;14.44;100.00
52983;BME280;48698;45.736;13.926;2023-08-08T00:47:03;97720.06;;;14.75;100.00
52983;BME280;48698;45.736;13.926;2023-08-08T00:52:07;97611.47;;;14.21;100.00
52983;BME280;48698;45.736;13.926;2023-08-08T00:57:12;97724.81;;;14.84;100.00
52983;BME280;48698;45.736;13.926;2023-08-08T01:02:15;97682.88;;;14.31;100.00
52983;BME280;48698;45.736;13.926;2023-08-08T01:07:26;97750.47;;;14.87;100.00
52983;BME280;48698;45.736;13.926;2023-08-08T01:12:32;97714.72;;;14.75;100.00
52983;BME280;48698;45.736;13.926;2023-08-08T01:17:36;97666.75;;;14.33;100.00
52983;BME280;48698;45.736;13.926;2023-08-08T01:27:53;97674.06;;;14.17;100.00
52983;BME280;48698;45.736;13.926;2023-08-08T01:32:56;97608.81;;;13.25;100.00
52983;BME280;48698;45.736;13.926;2023-08-08T01:38:18;97735.75;;;14.12;100.00
52983;BME280;48698;45.736;13.926;2023-08-08T01:43:24;97773.47;;;13.93;100.00
52983;BME280;48698;45.736;13.926;2023-08-08T01:48:27;97765.34;;;13.67;100.00
52983;BME280;48698;45.736;13.926;2023-08-08T01:53:31;97500.22;;;12.42;100.00
52983;BME280;48698;45.736;13.926;2023-08-08T01:58:34;97530.66;;;12.66;100.00
52983;BME280;48698;45.736;13.926;2023-08-08T02:03:38;97540.41;;;13.24;100.00
52983;BME280;48698;45.736;13.926;2023-08-08T02:08:42;97707.69;;;14.47;100.00
52983;BME280;48698;45.736;13.926;2023-08-08T02:13:46;97739.28;;;14.68;100.00
52983;BME280;48698;45.736;13.926;2023-08-08T02:18:49;97694.59;;;14.43;100.00
52983;BME280;48698;45.736;13.926;2023-08-08T02:23:53;97630.00;;;14.10;100.00
52983;BME280;48698;45.736;13.926;2023-08-08T02:28:56;97737.06;;;14.74;100.00
52983;BME280;48698;45.736;13.926;2023-08-08T02:34:00;97741.59;;;14.86;100.00
52983;BME280;48698;45.736;13.926;2023-08-08T02:39:03;97598.91;;;13.82;100.00
52983;BME280;48698;45.736;13.926;2023-08-08T02:44:07;97668.25;;;14.10;100.00
52983;BME280;48698;45.736;13.926;2023-08-08T02:49:10;97431.72;;;12.72;100.00
52983;BME280;48698;45.736;13.926;2023-08-08T02:54:13;97734.66;;;14.84;100.00
52983;BME280;48698;45.736;13.926;2023-08-08T02:59:17;97610.56;;;14.08;100.00
52983;BME280;48698;45.736;13.926;2023-08-08T03:04:20;97576.50;;;13.84;100.00
52983;BME280;48698;45.736;13.926;2023-08-08T03:09:24;97635.78;;;14.16;100.00
52983;BME280;48698;45.736;13.926;2023-08-08T03:14:27;97443.06;;;13.03;100.00
52983;BME280;48698;45.736;13.926;2023-08-08T03:19:31;97703.03;;;14.64;100.00
52983;BME280;48698;45.736;13.926;2023-08-08T03:24:34;97738.88;;;15.00;100.00
52983;BME280;48698;45.736;13.926;2023-08-08T03:29:38;97740.69;;;15.00;100.00
52983;BME280;48698;45.736;13.926;2023-08-08T03:34:41;97712.91;;;14.76;100.00
52983;BME280;48698;45.736;13.926;2023-08-08T03:39:45;97760.59;;;15.09;100.00
52983;BME280;48698;45.736;13.926;2023-08-08T03:44:48;97702.91;;;14.65;100.00
52983;BME280;48698;45.736;13.926;2023-08-08T03:49:55;97754.78;;;15.02;100.00
52983;BME280;48698;45.736;13.926;2023-08-08T03:55:01;97747.19;;;14.96;100.00
52983;BME280;48698;45.736;13.926;2023-08-08T04:00:06;97612.25;;;14.09;100.00
52983;BME280;48698;45.736;13.926;2023-08-08T04:05:11;97705.09;;;14.32;100.00
52983;BME280;48698;45.736;13.926;2023-08-08T04:10:15;97600.75;;;13.67;100.00
52983;BME280;48698;45.736;13.926;2023-08-08T04:15:19;97699.63;;;14.07;100.00
52983;BME280;48698;45.736;13.926;2023-08-08T04:20:22;97735.09;;;14.37;100.00
52983;BME280;48698;45.736;13.926;2023-08-08T04:25:27;97642.72;;;13.92;100.00
52983;BME280;48698;45.736;13.926;2023-08-08T04:30:30;97755.84;;;14.60;100.00
52983;BME280;48698;45.736;13.926;2023-08-08T04:35:34;97673.56;;;14.24;100.00
52983;BME280;48698;45.736;13.926;2023-08-08T04:40:37;97691.94;;;14.43;100.00
52983;BME280;48698;45.736;13.926;2023-08-08T04:45:41;97758.44;;;15.01;100.00
52983;BME280;48698;45.736;13.926;2023-08-08T04:50:46;97782.50;;;15.28;100.00
52983;BME280;48698;45.736;13.926;2023-08-08T04:55:50;97575.22;;;14.17;100.00
52983;BME280;48698;45.736;13.926;2023-08-08T05:00:53;97774.13;;;15.45;100.00
52983;BME280;48698;45.736;13.926;2023-08-08T05:05:58;97449.31;;;13.44;100.00
52983;BME280;48698;45.736;13.926;2023-08-08T05:11:02;97651.19;;;14.66;100.00
52983;BME280;48698;45.736;13.926;2023-08-08T05:16:05;97728.94;;;15.15;100.00
52983;BME280;48698;45.736;13.926;2023-08-08T05:21:09;97784.72;;;15.73;100.00
52983;BME280;48698;45.736;13.926;2023-08-08T05:26:14;97528.56;;;14.22;100.00
52983;BME280;48698;45.736;13.926;2023-08-08T05:31:18;97816.19;;;15.95;100.00
52983;BME280;48698;45.736;13.926;2023-08-08T05:36:22;97750.63;;;15.63;100.00
52983;BME280;48698;45.736;13.926;2023-08-08T05:41:25;97632.41;;;15.06;100.00
52983;BME280;48698;45.736;13.926;2023-08-08T05:46:29;97624.72;;;15.01;100.00
52983;BME280;48698;45.736;13.926;2023-08-08T05:51:32;97758.19;;;16.19;100.00
52983;BME280;48698;45.736;13.926;2023-08-08T05:56:37;97754.41;;;16.34;100.00
52983;BME280;48698;45.736;13.926;2023-08-08T06:01:40;97800.66;;;16.74;100.00
52983;BME280;48698;45.736;13.926;2023-08-08T06:06:44;97793.22;;;16.41;100.00
52983;BME280;48698;45.736;13.926;2023-08-08T06:11:48;97750.19;;;16.07;100.00
52983;BME280;48698;45.736;13.926;2023-08-08T06:16:52;97792.59;;;16.25;100.00
52983;BME280;48698;45.736;13.926;2023-08-08T06:21:55;97788.97;;;16.14;100.00
52983;BME280;48698;45.736;13.926;2023-08-08T06:26:59;97848.63;;;16.66;100.00
52983;BME280;48698;45.736;13.926;2023-08-08T06:32:03;97593.69;;;15.36;100.00
52983;BME280;48698;45.736;13.926;2023-08-08T06:37:07;97768.88;;;16.81;100.00
52983;BME280;48698;45.736;13.926;2023-08-08T06:42:11;97760.97;;;17.03;100.00
52983;BME280;48698;45.736;13.926;2023-08-08T06:47:14;97847.25;;;17.68;100.00
52983;BME280;48698;45.736;13.926;2023-08-08T06:52:18;97709.22;;;17.01;100.00
52983;BME280;48698;45.736;13.926;2023-08-08T06:57:22;97732.28;;;17.38;100.00
52983;BME280;48698;45.736;13.926;2023-08-08T07:02:25;97857.94;;;18.60;100.00
52983;BME280;48698;45.736;13.926;2023-08-08T07:07:29;97687.69;;;18.15;100.00
52983;BME280;48698;45.736;13.926;2023-08-08T07:12:34;97816.47;;;19.28;100.00
52983;BME280;48698;45.736;13.926;2023-08-08T07:17:38;97857.72;;;19.92;100.00
52983;BME280;48698;45.736;13.926;2023-08-08T07:22:41;97812.72;;;19.40;100.00
52983;BME280;48698;45.736;13.926;2023-08-08T07:27:45;97862.91;;;20.04;100.00
52983;BME280;48698;45.736;13.926;2023-08-08T07:32:49;97841.34;;;20.04;100.00
52983;BME280;48698;45.736;13.926;2023-08-08T07:37:53;97835.28;;;20.33;100.00
52983;BME280;48698;45.736;13.926;2023-08-08T07:42:56;97862.47;;;20.71;100.00
52983;BME280;48698;45.736;13.926;2023-08-08T07:48:00;97778.00;;;20.20;100.00
52983;BME280;48698;45.736;13.926;2023-08-08T07:53:04;97747.44;;;20.40;100.00
52983;BME280;48698;45.736;13.926;2023-08-08T07:58:07;97859.25;;;21.27;100.00
52983;BME280;48698;45.736;13.926;2023-08-08T08:03:11;97777.28;;;20.97;100.00
52983;BME280;48698;45.736;13.926;2023-08-08T08:08:14;97775.63;;;21.35;100.00
52983;BME280;48698;45.736;13.926;2023-08-08T08:13:18;97782.63;;;21.56;100.00
52983;BME280;48698;45.736;13.926;2023-08-08T08:18:21;97598.38;;;20.95;100.00
52983;BME280;48698;45.736;13.926;2023-08-08T08:23:25;97770.78;;;21.77;100.00
52983;BME280;48698;45.736;13.926;2023-08-08T08:28:28;97765.13;;;21.60;100.00
52983;BME280;48698;45.736;13.926;2023-08-08T08:33:32;97769.22;;;21.93;100.00
52983;BME280;48698;45.736;13.926;2023-08-08T08:38:35;97842.88;;;22.24;100.00
52983;BME280;48698;45.736;13.926;2023-08-08T08:43:39;97810.72;;;22.21;100.00
52983;BME280;48698;45.736;13.926;2023-08-08T08:48:43;97838.34;;;22.61;100.00
52983;BME280;48698;45.736;13.926;2023-08-08T08:53:47;97669.88;;;21.95;100.00
52983;BME280;48698;45.736;13.926;2023-08-08T08:58:51;97863.00;;;22.58;100.00
52983;BME280;48698;45.736;13.926;2023-08-08T09:03:55;97851.50;;;22.56;100.00
52983;BME280;48698;45.736;13.926;2023-08-08T09:09:01;97600.41;;;20.65;100.00
52983;BME280;48698;45.736;13.926;2023-08-08T09:14:21;97669.53;;;22.08;100.00
52983;BME280;48698;45.736;13.926;2023-08-08T09:19:24;97865.59;;;24.48;100.00
52983;BME280;48698;45.736;13.926;2023-08-08T09:24:28;97857.81;;;25.04;94.65
52983;BME280;48698;45.736;13.926;2023-08-08T09:29:32;97860.78;;;23.81;98.16
52983;BME280;48698;45.736;13.926;2023-08-08T09:34:37;97795.63;;;23.20;79.85
52983;BME280;48698;45.736;13.926;2023-08-08T09:39:46;97828.75;;;23.76;97.03
52983;BME280;48698;45.736;13.926;2023-08-08T09:44:50;97859.41;;;23.59;85.33
52983;BME280;48698;45.736;13.926;2023-08-08T09:49:54;97739.56;;;23.02;76.87
52983;BME280;48698;45.736;13.926;2023-08-08T09:55:01;97855.66;;;23.60;76.39
52983;BME280;48698;45.736;13.926;2023-08-08T10:00:08;97782.88;;;23.47;79.26
52983;BME280;48698;45.736;13.926;2023-08-08T10:05:16;97852.03;;;24.48;71.50
52983;BME280;48698;45.736;13.926;2023-08-08T10:10:19;97858.91;;;24.86;74.39
52983;BME280;48698;45.736;13.926;2023-08-08T10:24:57;97707.41;;;24.72;77.17
52983;BME280;48698;45.736;13.926;2023-08-08T10:30:06;97827.63;;;25.24;72.62
52983;BME280;48698;45.736;13.926;2023-08-08T10:35:12;97818.00;;;25.37;74.85
52983;BME280;48698;45.736;13.926;2023-08-08T10:40:17;97803.78;;;23.73;73.81
52983;BME280;48698;45.736;13.926;2023-08-08T10:50:23;97843.72;;;24.24;76.27
52983;BME280;48698;45.736;13.926;2023-08-08T10:55:31;97840.00;;;24.07;74.27
52983;BME280;48698;45.736;13.926;2023-08-08T11:00:37;97831.28;;;23.95;78.44
52983;BME280;48698;45.736;13.926;2023-08-08T11:05:46;97792.34;;;24.22;69.05
52983;BME280;48698;45.736;13.926;2023-08-08T11:10:54;97724.22;;;23.29;70.09
52983;BME280;48698;45.736;13.926;2023-08-08T11:15:57;97798.22;;;24.43;73.18
52983;BME280;48698;45.736;13.926;2023-08-08T11:21:00;97822.72;;;23.37;75.50
52983;BME280;48698;45.736;13.926;2023-08-08T11:26:18;97809.03;;;24.35;71.70
52983;BME280;48698;45.736;13.926;2023-08-08T11:31:22;97802.31;;;24.47;68.38
52983;BME280;48698;45.736;13.926;2023-08-08T11:36:25;97817.38;;;25.01;75.98
52983;BME280;48698;45.736;13.926;2023-08-08T11:41:29;97764.44;;;23.51;76.23
52983;BME280;48698;45.736;13.926;2023-08-08T11:46:32;97800.00;;;23.65;70.06
52983;BME280;48698;45.736;13.926;2023-08-08T11:51:35;97792.22;;;24.32;72.09
52983;BME280;48698;45.736;13.926;2023-08-08T11:56:38;97780.75;;;24.80;68.67
52983;BME280;48698;45.736;13.926;2023-08-08T12:01:41;97783.50;;;24.46;78.06
52983;BME280;48698;45.736;13.926;2023-08-08T12:06:45;97759.31;;;24.35;81.92
52983;BME280;48698;45.736;13.926;2023-08-08T12:11:50;97732.19;;;24.35;76.80
52983;BME280;48698;45.736;13.926;2023-08-08T12:16:54;97727.94;;;24.32;74.13
52983;BME280;48698;45.736;13.926;2023-08-08T12:21:57;97717.03;;;23.98;76.75
52983;BME280;48698;45.736;13.926;2023-08-08T12:27:00;97782.94;;;24.76;73.66
52983;BME280;48698;45.736;13.926;2023-08-08T12:32:03;97757.97;;;25.14;73.31
52983;BME280;48698;45.736;13.926;2023-08-08T12:37:10;97720.97;;;24.80;73.18
52983;BME280;48698;45.736;13.926;2023-08-08T12:42:12;97760.78;;;24.89;77.99
52983;BME280;48698;45.736;13.926;2023-08-08T12:47:15;97750.19;;;24.36;80.39
52983;BME280;48698;45.736;13.926;2023-08-08T12:52:18;97760.94;;;24.53;74.99
52983;BME280;48698;45.736;13.926;2023-08-08T12:57:21;97721.31;;;24.35;83.55
52983;BME280;48698;45.736;13.926;2023-08-08T13:02:24;97740.66;;;23.45;84.23
52983;BME280;48698;45.736;13.926;2023-08-08T13:07:27;97765.84;;;24.16;84.06
52983;BME280;48698;45.736;13.926;2023-08-08T13:12:30;97755.28;;;24.39;78.38
52983;BME280;48698;45.736;13.926;2023-08-08T13:17:34;97767.00;;;24.81;84.73
52983;BME280;48698;45.736;13.926;2023-08-08T13:22:38;97744.59;;;23.68;84.85
52983;BME280;48698;45.736;13.926;2023-08-08T13:27:40;97756.66;;;24.17;92.89
52983;BME280;48698;45.736;13.926;2023-08-08T13:32:45;97689.50;;;23.93;88.53
52983;BME280;48698;45.736;13.926;2023-08-08T13:37:48;97728.22;;;23.78;88.21
52983;BME280;48698;45.736;13.926;2023-08-08T13:42:53;97655.19;;;23.76;92.88
52983;BME280;48698;45.736;13.926;2023-08-08T13:47:58;97650.22;;;23.97;94.72
52983;BME280;48698;45.736;13.926;2023-08-08T13:53:02;97749.38;;;23.74;92.92
52983;BME280;48698;45.736;13.926;2023-08-08T13:58:05;97746.22;;;23.79;100.00
52983;BME280;48698;45.736;13.926;2023-08-08T14:03:09;97678.97;;;23.90;100.00
52983;BME280;48698;45.736;13.926;2023-08-08T14:08:15;97687.50;;;23.95;100.00
52983;BME280;48698;45.736;13.926;2023-08-08T14:13:18;97727.59;;;23.84;100.00
52983;BME280;48698;45.736;13.926;2023-08-08T14:18:21;97711.38;;;23.66;100.00
52983;BME280;48698;45.736;13.926;2023-08-08T14:23:24;97655.25;;;23.41;100.00
52983;BME280;48698;45.736;13.926;2023-08-08T14:28:27;97680.41;;;23.51;100.00
52983;BME280;48698;45.736;13.926;2023-08-08T14:33:30;97632.44;;;23.08;100.00
52983;BME280;48698;45.736;13.926;2023-08-08T14:38:36;97741.13;;;23.58;100.00
52983;BME280;48698;45.736;13.926;2023-08-08T14:43:39;97715.28;;;24.15;100.00
52983;BME280;48698;45.736;13.926;2023-08-08T14:48:42;97697.28;;;23.62;100.00
52983;BME280;48698;45.736;13.926;2023-08-08T14:53:45;97711.63;;;23.81;100.00
52983;BME280;48698;45.736;13.926;2023-08-08T14:58:49;97737.53;;;24.52;100.00
52983;BME280;48698;45.736;13.926;2023-08-08T15:03:52;97738.66;;;24.42;100.00
52983;BME280;48698;45.736;13.926;2023-08-08T15:08:55;97652.56;;;22.70;100.00
52983;BME280;48698;45.736;13.926;2023-08-08T15:13:58;97716.16;;;23.37;100.00
52983;BME280;48698;45.736;13.926;2023-08-08T15:19:02;97733.06;;;23.66;100.00
52983;BME280;48698;45.736;13.926;2023-08-08T15:24:05;97729.63;;;23.82;100.00
52983;BME280;48698;45.736;13.926;2023-08-08T15:29:08;97686.22;;;24.07;100.00
52983;BME280;48698;45.736;13.926;2023-08-08T15:34:11;97735.38;;;23.43;100.00
52983;BME280;48698;45.736;13.926;2023-08-08T15:39:14;97610.41;;;22.23;100.00
52983;BME280;48698;45.736;13.926;2023-08-08T15:44:18;97730.50;;;23.47;100.00
52983;BME280;48698;45.736;13.926;2023-08-08T15:49:21;97722.44;;;22.57;100.00
52983;BME280;48698;45.736;13.926;2023-08-08T15:54:23;97726.06;;;23.81;100.00
52983;BME280;48698;45.736;13.926;2023-08-08T15:59:26;97714.47;;;23.36;100.00
52983;BME280;48698;45.736;13.926;2023-08-08T16:04:30;97638.94;;;23.15;100.00
52983;BME280;48698;45.736;13.926;2023-08-08T16:09:34;97699.16;;;22.91;100.00
52983;BME280;48698;45.736;13.926;2023-08-08T16:14:37;97709.84;;;22.38;100.00
52983;BME280;48698;45.736;13.926;2023-08-08T16:19:40;97681.84;;;21.83;100.00
52983;BME280;48698;45.736;13.926;2023-08-08T16:24:43;97632.47;;;21.35;100.00
52983;BME280;48698;45.736;13.926;2023-08-08T16:29:46;97730.28;;;21.67;100.00
52983;BME280;48698;45.736;13.926;2023-08-08T16:34:49;97711.66;;;21.64;100.00
52983;BME280;48698;45.736;13.926;2023-08-08T16:39:54;97732.13;;;22.23;100.00
52983;BME280;48698;45.736;13.926;2023-08-08T16:44:57;97726.34;;;22.72;100.00
52983;BME280;48698;45.736;13.926;2023-08-08T16:50:01;97660.81;;;21.77;100.00
52983;BME280;48698;45.736;13.926;2023-08-08T16:55:05;97687.50;;;22.36;100.00
52983;BME280;48698;45.736;13.926;2023-08-08T17:00:09;97722.03;;;22.52;100.00
52983;BME280;48698;45.736;13.926;2023-08-08T17:05:12;97711.09;;;22.71;100.00
52983;BME280;48698;45.736;13.926;2023-08-08T17:10:16;97714.19;;;22.49;100.00
52983;BME280;48698;45.736;13.926;2023-08-08T17:15:19;97719.13;;;22.63;100.00
52983;BME280;48698;45.736;13.926;2023-08-08T17:20:23;97687.84;;;23.13;100.00
52983;BME280;48698;45.736;13.926;2023-08-08T17:25:26;97675.94;;;22.61;100.00
52983;BME280;48698;45.736;13.926;2023-08-08T17:30:29;97643.44;;;22.44;100.00
52983;BME280;48698;45.736;13.926;2023-08-08T17:35:33;97713.66;;;22.08;100.00
52983;BME280;48698;45.736;13.926;2023-08-08T17:40:36;97725.25;;;21.91;100.00
52983;BME280;48698;45.736;13.926;2023-08-08T17:45:39;97686.72;;;21.70;100.00
52983;BME280;48698;45.736;13.926;2023-08-08T17:50:42;97722.88;;;21.59;100.00
52983;BME280;48698;45.736;13.926;2023-08-08T17:55:44;97716.72;;;21.77;100.00
52983;BME280;48698;45.736;13.926;2023-08-08T18:00:49;97691.00;;;21.63;100.00
52983;BME280;48698;45.736;13.926;2023-08-08T18:05:52;97706.72;;;21.31;100.00
52983;BME280;48698;45.736;13.926;2023-08-08T18:10:54;97693.38;;;20.41;100.00
52983;BME280;48698;45.736;13.926;2023-08-08T18:16:00;97731.75;;;19.94;100.00
52983;BME280;48698;45.736;13.926;2023-08-08T18:21:03;97749.84;;;19.41;100.00
52983;BME280;48698;45.736;13.926;2023-08-08T18:26:06;97749.66;;;19.22;100.00
52983;BME280;48698;45.736;13.926;2023-08-08T18:31:09;97735.00;;;18.83;100.00
52983;BME280;48698;45.736;13.926;2023-08-08T18:36:13;97763.94;;;18.58;100.00
52983;BME280;48698;45.736;13.926;2023-08-08T18:41:15;97738.41;;;17.86;100.00
52983;BME280;48698;45.736;13.926;2023-08-08T18:46:19;97782.13;;;18.22;100.00
52983;BME280;48698;45.736;13.926;2023-08-08T18:51:22;97777.47;;;17.79;100.00
52983;BME280;48698;45.736;13.926;2023-08-08T18:56:25;97750.84;;;17.76;100.00
52983;BME280;48698;45.736;13.926;2023-08-08T19:08:21;97787.16;;;16.99;100.00
52983;BME280;48698;45.736;13.926;2023-08-08T19:13:24;97791.41;;;16.78;100.00
52983;BME280;48698;45.736;13.926;2023-08-08T19:18:27;97712.91;;;16.03;100.00
52983;BME280;48698;45.736;13.926;2023-08-08T19:23:31;97797.06;;;16.63;100.00
52983;BME280;48698;45.736;13.926;2023-08-08T19:28:34;97546.31;;;15.13;100.00
52983;BME280;48698;45.736;13.926;2023-08-08T19:33:38;97782.88;;;16.73;100.00
52983;BME280;48698;45.736;13.926;2023-08-08T19:38:49;97597.13;;;15.51;100.00
52983;BME280;48698;45.736;13.926;2023-08-08T19:43:52;97695.78;;;15.93;100.00
52983;BME280;48698;45.736;13.926;2023-08-08T19:48:54;97827.97;;;16.18;100.00
52983;BME280;48698;45.736;13.926;2023-08-08T19:53:57;97553.06;;;14.81;100.00
52983;BME280;48698;45.736;13.926;2023-08-08T19:59:01;97725.31;;;16.17;100.00
52983;BME280;48698;45.736;13.926;2023-08-08T20:04:04;97792.44;;;16.52;100.00
52983;BME280;48698;45.736;13.926;2023-08-08T20:09:07;97844.25;;;16.40;100.00
52983;BME280;48698;45.736;13.926;2023-08-08T20:14:09;97695.56;;;15.46;100.00
52983;BME280;48698;45.736;13.926;2023-08-08T20:19:12;97755.47;;;15.83;100.00
52983;BME280;48698;45.736;13.926;2023-08-08T20:24:15;97636.59;;;14.84;100.00
52983;BME280;48698;45.736;13.926;2023-08-08T20:29:18;97836.88;;;16.18;100.00
52983;BME280;48698;45.736;13.926;2023-08-08T20:34:20;97749.25;;;15.82;100.00
52983;BME280;48698;45.736;13.926;2023-08-08T20:39:24;97755.03;;;15.89;100.00
52983;BME280;48698;45.736;13.926;2023-08-08T20:44:27;97835.38;;;16.01;100.00
52983;BME280;48698;45.736;13.926;2023-08-08T20:49:30;97700.22;;;14.92;100.00
52983;BME280;48698;45.736;13.926;2023-08-08T20:54:32;97840.56;;;15.52;100.00
52983;BME280;48698;45.736;13.926;2023-08-08T20:59:35;97560.56;;;14.10;100.00
52983;BME280;48698;45.736;13.926;2023-08-08T21:04:39;97853.28;;;16.14;100.00
52983;BME280;48698;45.736;13.926;2023-08-08T21:09:43;97858.41;;;16.29;100.00
52983;BME280;48698;45.736;13.926;2023-08-08T21:14:45;97730.22;;;15.10;100.00
52983;BME280;48698;45.736;13.926;2023-08-08T21:19:48;97718.28;;;14.62;100.00
52983;BME280;48698;45.736;13.926;2023-08-08T21:24:55;97775.00;;;15.45;100.00
52983;BME280;48698;45.736;13.926;2023-08-08T21:29:57;97816.09;;;15.44;100.00
52983;BME280;48698;45.736;13.926;2023-08-08T21:35:00;97751.94;;;14.78;100.00
52983;BME280;48698;45.736;13.926;2023-08-08T21:40:04;97840.16;;;15.32;100.00
52983;BME280;48698;45.736;13.926;2023-08-08T21:45:07;97756.97;;;15.10;100.00
52983;BME280;48698;45.736;13.926;2023-08-08T21:50:10;97563.91;;;13.86;100.00
52983;BME280;48698;45.736;13.926;2023-08-08T21:55:13;97717.44;;;14.20;100.00
52983;BME280;48698;45.736;13.926;2023-08-08T22:00:16;97786.03;;;15.01;100.00
52983;BME280;48698;45.736;13.926;2023-08-08T22:05:20;97722.59;;;14.37;100.00
52983;BME280;48698;45.736;13.926;2023-08-08T22:10:22;97771.91;;;14.73;100.00
52983;BME280;48698;45.736;13.926;2023-08-08T22:15:26;97817.47;;;14.98;100.00
52983;BME280;48698;45.736;13.926;2023-08-08T22:20:29;97625.97;;;14.17;100.00
52983;BME280;48698;45.736;13.926;2023-08-08T22:25:32;97770.16;;;14.86;100.00
52983;BME280;48698;45.736;13.926;2023-08-08T22:30:35;97856.09;;;15.21;100.00
52983;BME280;48698;45.736;13.926;2023-08-08T22:35:37;97827.84;;;14.76;100.00
52983;BME280;48698;45.736;13.926;2023-08-08T22:40:40;97724.75;;;14.45;100.00
52983;BME280;48698;45.736;13.926;2023-08-08T22:45:43;97851.44;;;15.37;100.00
52983;BME280;48698;45.736;13.926;2023-08-08T22:50:46;97821.50;;;14.64;100.00
52983;BME280;48698;45.736;13.926;2023-08-08T22:55:48;97804.16;;;14.84;100.00
52983;BME280;48698;45.736;13.926;2023-08-08T23:00:51;97691.59;;;14.21;100.00
52983;BME280;48698;45.736;13.926;2023-08-08T23:05:54;97769.91;;;14.35;100.00
52983;BME280;48698;45.736;13.926;2023-08-08T23:10:58;97560.28;;;12.90;100.00
52983;BME280;48698;45.736;13.926;2023-08-08T23:16:01;97840.00;;;14.67;100.00
52983;BME280;48698;45.736;13.926;2023-08-08T23:21:05;97730.63;;;14.09;100.00
52983;BME280;48698;45.736;13.926;2023-08-08T23:26:07;97680.41;;;13.87;100.00
52983;BME280;48698;45.736;13.926;2023-08-08T23:31:10;97798.94;;;14.41;100.00
52983;BME280;48698;45.736;13.926;2023-08-08T23:36:13;97696.63;;;13.84;100.00
52983;BME280;48698;45.736;13.926;2023-08-08T23:41:19;97734.75;;;13.72;100.00
52983;BME280;48698;45.736;13.926;2023-08-08T23:46:22;97813.59;;;14.48;100.00
52983;BME280;48698;45.736;13.926;2023-08-08T23:51:25;97624.16;;;13.35;100.00
52983;BME280;48698;45.736;13.926;2023-08-08T23:56:27;97804.25;;;14.27;100.00
